sensor_id;sensor_type;location;lat;lon;timestamp;P1;durP1;ratioP1;P2;durP2;ratioP2
22539;SDS011;11436;50.860;4.334;2022-07-19T00:01:46;7.32;;;2.40;;
22539;SDS011;11436;50.860;4.334;2022-07-19T00:04:12;4.43;;;2.17;;
22539;SDS011;11436;50.860;4.334;2022-07-19T00:06:38;3.78;;;2.10;;
22539;SDS011;11436;50.860;4.334;2022-07-19T00:09:04;7.40;;;2.40;;
22539;SDS011;11436;50.860;4.334;2022-07-19T00:11:30;7.72;;;2.30;;
22539;SDS011;11436;50.860;4.334;2022-07-19T00:13:56;4.30;;;2.22;;
22539;SDS011;11436;50.860;4.334;2022-07-19T00:16:21;4.00;;;2.03;;
22539;SDS011;11436;50.860;4.334;2022-07-19T00:18:47;8.70;;;1.95;;
22539;SDS011;11436;50.860;4.334;2022-07-19T00:21:13;4.38;;;1.83;;
22539;SDS011;11436;50.860;4.334;2022-07-19T00:23:39;4.70;;;1.73;;
22539;SDS011;11436;50.860;4.334;2022-07-19T00:26:04;3.80;;;1.67;;
22539;SDS011;11436;50.860;4.334;2022-07-19T00:28:31;7.97;;;2.35;;
22539;SDS011;11436;50.860;4.334;2022-07-19T00:30:57;6.80;;;2.22;;
22539;SDS011;11436;50.860;4.334;2022-07-19T00:33:24;5.88;;;1.92;;
22539;SDS011;11436;50.860;4.334;2022-07-19T00:35:50;5.70;;;1.75;;
22539;SDS011;11436;50.860;4.334;2022-07-19T00:38:16;3.95;;;1.75;;
22539;SDS011;11436;50.860;4.334;2022-07-19T00:40:42;12.40;;;1.58;;
22539;SDS011;11436;50.860;4.334;2022-07-19T00:43:08;3.35;;;1.88;;
22539;SDS011;11436;50.860;4.334;2022-07-19T00:45:35;3.28;;;1.75;;
22539;SDS011;11436;50.860;4.334;2022-07-19T00:48:02;7.90;;;1.70;;
22539;SDS011;11436;50.860;4.334;2022-07-19T00:50:29;7.63;;;1.80;;
22539;SDS011;11436;50.860;4.334;2022-07-19T00:52:55;3.58;;;1.92;;
22539;SDS011;11436;50.860;4.334;2022-07-19T00:55:26;4.07;;;2.10;;
22539;SDS011;11436;50.860;4.334;2022-07-19T00:57:55;4.53;;;1.60;;
22539;SDS011;11436;50.860;4.334;2022-07-19T01:00:22;6.65;;;2.00;;
22539;SDS011;11436;50.860;4.334;2022-07-19T01:02:48;3.67;;;1.70;;
22539;SDS011;11436;50.860;4.334;2022-07-19T01:05:15;4.25;;;1.70;;
22539;SDS011;11436;50.860;4.334;2022-07-19T01:07:41;4.88;;;2.10;;
22539;SDS011;11436;50.860;4.334;2022-07-19T01:10:08;7.28;;;1.80;;
22539;SDS011;11436;50.860;4.334;2022-07-19T01:12:36;3.65;;;1.88;;
22539;SDS011;11436;50.860;4.334;2022-07-19T01:15:02;3.80;;;1.98;;
22539;SDS011;11436;50.860;4.334;2022-07-19T01:17:55;7.03;;;2.25;;
22539;SDS011;11436;50.860;4.334;2022-07-19T01:20:20;10.85;;;2.42;;
22539;SDS011;11436;50.860;4.334;2022-07-19T01:22:47;4.68;;;2.35;;
22539;SDS011;11436;50.860;4.334;2022-07-19T01:25:13;4.45;;;2.70;;
22539;SDS011;11436;50.860;4.334;2022-07-19T01:27:44;10.57;;;3.45;;
22539;SDS011;11436;50.860;4.334;2022-07-19T01:30:15;6.00;;;3.40;;
22539;SDS011;11436;50.860;4.334;2022-07-19T01:32:42;6.23;;;3.20;;
22539;SDS011;11436;50.860;4.334;2022-07-19T01:35:08;9.88;;;3.55;;
22539;SDS011;11436;50.860;4.334;2022-07-19T01:37:34;6.60;;;3.17;;
22539;SDS011;11436;50.860;4.334;2022-07-19T01:40:02;9.68;;;3.45;;
22539;SDS011;11436;50.860;4.334;2022-07-19T01:42:29;7.72;;;3.40;;
22539;SDS011;11436;50.860;4.334;2022-07-19T01:44:54;9.32;;;3.42;;
22539;SDS011;11436;50.860;4.334;2022-07-19T01:47:20;5.25;;;3.40;;
22539;SDS011;11436;50.860;4.334;2022-07-19T01:49:46;4.97;;;3.10;;
22539;SDS011;11436;50.860;4.334;2022-07-19T01:52:12;8.18;;;3.50;;
22539;SDS011;11436;50.860;4.334;2022-07-19T01:54:37;5.63;;;3.05;;
22539;SDS011;11436;50.860;4.334;2022-07-19T01:57:03;5.88;;;3.00;;
22539;SDS011;11436;50.860;4.334;2022-07-19T01:59:28;7.15;;;3.78;;
22539;SDS011;11436;50.860;4.334;2022-07-19T02:01:54;13.20;;;3.60;;
22539;SDS011;11436;50.860;4.334;2022-07-19T02:04:20;8.88;;;4.10;;
22539;SDS011;11436;50.860;4.334;2022-07-19T02:06:45;11.85;;;3.65;;
22539;SDS011;11436;50.860;4.334;2022-07-19T02:09:11;5.85;;;3.13;;
22539;SDS011;11436;50.860;4.334;2022-07-19T02:11:37;4.25;;;2.95;;
22539;SDS011;11436;50.860;4.334;2022-07-19T02:14:07;9.43;;;3.35;;
22539;SDS011;11436;50.860;4.334;2022-07-19T02:16:34;9.33;;;3.57;;
22539;SDS011;11436;50.860;4.334;2022-07-19T02:19:02;5.07;;;2.75;;
22539;SDS011;11436;50.860;4.334;2022-07-19T02:21:28;8.27;;;3.20;;
22539;SDS011;11436;50.860;4.334;2022-07-19T02:23:54;15.85;;;3.67;;
22539;SDS011;11436;50.860;4.334;2022-07-19T02:26:20;7.30;;;3.30;;
22539;SDS011;11436;50.860;4.334;2022-07-19T02:28:45;5.88;;;2.65;;
22539;SDS011;11436;50.860;4.334;2022-07-19T02:31:11;6.03;;;2.67;;
22539;SDS011;11436;50.860;4.334;2022-07-19T02:33:36;11.50;;;3.70;;
22539;SDS011;11436;50.860;4.334;2022-07-19T02:36:02;10.30;;;2.72;;
22539;SDS011;11436;50.860;4.334;2022-07-19T02:38:29;12.88;;;3.22;;
22539;SDS011;11436;50.860;4.334;2022-07-19T02:40:55;6.75;;;3.28;;
22539;SDS011;11436;50.860;4.334;2022-07-19T02:43:21;11.00;;;2.65;;
22539;SDS011;11436;50.860;4.334;2022-07-19T02:45:46;12.05;;;2.60;;
22539;SDS011;11436;50.860;4.334;2022-07-19T02:48:12;7.70;;;2.80;;
22539;SDS011;11436;50.860;4.334;2022-07-19T02:50:38;12.90;;;2.70;;
22539;SDS011;11436;50.860;4.334;2022-07-19T02:53:03;7.50;;;2.83;;
22539;SDS011;11436;50.860;4.334;2022-07-19T02:55:29;10.00;;;2.47;;
22539;SDS011;11436;50.860;4.334;2022-07-19T02:57:56;11.48;;;3.30;;
22539;SDS011;11436;50.860;4.334;2022-07-19T03:00:22;9.98;;;2.47;;
22539;SDS011;11436;50.860;4.334;2022-07-19T03:02:47;12.48;;;3.15;;
22539;SDS011;11436;50.860;4.334;2022-07-19T03:05:13;4.78;;;2.63;;
22539;SDS011;11436;50.860;4.334;2022-07-19T03:07:39;10.18;;;2.97;;
22539;SDS011;11436;50.860;4.334;2022-07-19T03:10:05;8.85;;;2.65;;
22539;SDS011;11436;50.860;4.334;2022-07-19T03:12:31;15.40;;;2.70;;
22539;SDS011;11436;50.860;4.334;2022-07-19T03:14:57;7.93;;;2.65;;
22539;SDS011;11436;50.860;4.334;2022-07-19T03:17:23;11.48;;;2.78;;
22539;SDS011;11436;50.860;4.334;2022-07-19T03:19:49;7.72;;;2.58;;
22539;SDS011;11436;50.860;4.334;2022-07-19T03:22:14;9.55;;;3.13;;
22539;SDS011;11436;50.860;4.334;2022-07-19T03:24:40;7.75;;;2.97;;
22539;SDS011;11436;50.860;4.334;2022-07-19T03:27:06;13.65;;;3.55;;
22539;SDS011;11436;50.860;4.334;2022-07-19T03:29:31;9.35;;;2.72;;
22539;SDS011;11436;50.860;4.334;2022-07-19T03:31:57;9.32;;;2.78;;
22539;SDS011;11436;50.860;4.334;2022-07-19T03:34:23;9.27;;;2.90;;
22539;SDS011;11436;50.860;4.334;2022-07-19T03:36:49;11.65;;;2.97;;
22539;SDS011;11436;50.860;4.334;2022-07-19T03:39:15;12.18;;;3.15;;
22539;SDS011;11436;50.860;4.334;2022-07-19T03:41:41;21.65;;;3.33;;
22539;SDS011;11436;50.860;4.334;2022-07-19T03:44:06;8.85;;;3.13;;
22539;SDS011;11436;50.860;4.334;2022-07-19T03:46:32;16.17;;;3.15;;
22539;SDS011;11436;50.860;4.334;2022-07-19T03:48:58;17.25;;;3.35;;
22539;SDS011;11436;50.860;4.334;2022-07-19T03:51:24;13.13;;;2.80;;
22539;SDS011;11436;50.860;4.334;2022-07-19T03:53:50;12.75;;;3.17;;
22539;SDS011;11436;50.860;4.334;2022-07-19T03:56:15;12.65;;;3.17;;
22539;SDS011;11436;50.860;4.334;2022-07-19T03:58:42;17.85;;;3.47;;
22539;SDS011;11436;50.860;4.334;2022-07-19T04:01:08;11.13;;;3.00;;
22539;SDS011;11436;50.860;4.334;2022-07-19T04:03:38;14.95;;;3.90;;
22539;SDS011;11436;50.860;4.334;2022-07-19T04:06:07;17.42;;;3.67;;
22539;SDS011;11436;50.860;4.334;2022-07-19T04:08:35;14.48;;;3.80;;
22539;SDS011;11436;50.860;4.334;2022-07-19T04:11:02;16.83;;;3.33;;
22539;SDS011;11436;50.860;4.334;2022-07-19T04:13:28;12.02;;;3.63;;
22539;SDS011;11436;50.860;4.334;2022-07-19T04:15:54;20.75;;;3.95;;
22539;SDS011;11436;50.860;4.334;2022-07-19T04:18:20;19.60;;;3.72;;
22539;SDS011;11436;50.860;4.334;2022-07-19T04:20:45;12.85;;;3.72;;
22539;SDS011;11436;50.860;4.334;2022-07-19T04:23:11;19.08;;;3.58;;
22539;SDS011;11436;50.860;4.334;2022-07-19T04:25:37;15.15;;;3.75;;
22539;SDS011;11436;50.860;4.334;2022-07-19T04:28:02;15.32;;;3.08;;
22539;SDS011;11436;50.860;4.334;2022-07-19T04:30:29;19.10;;;3.78;;
22539;SDS011;11436;50.860;4.334;2022-07-19T04:32:55;18.42;;;5.40;;
22539;SDS011;11436;50.860;4.334;2022-07-19T04:35:20;15.35;;;3.45;;
22539;SDS011;11436;50.860;4.334;2022-07-19T04:37:46;23.55;;;3.75;;
22539;SDS011;11436;50.860;4.334;2022-07-19T04:40:12;12.35;;;3.40;;
22539;SDS011;11436;50.860;4.334;2022-07-19T04:42:38;19.50;;;4.88;;
22539;SDS011;11436;50.860;4.334;2022-07-19T04:45:04;25.20;;;4.38;;
22539;SDS011;11436;50.860;4.334;2022-07-19T04:47:30;16.80;;;4.00;;
22539;SDS011;11436;50.860;4.334;2022-07-19T04:49:56;16.92;;;4.47;;
22539;SDS011;11436;50.860;4.334;2022-07-19T04:52:22;22.38;;;4.10;;
22539;SDS011;11436;50.860;4.334;2022-07-19T04:54:48;23.13;;;4.30;;
22539;SDS011;11436;50.860;4.334;2022-07-19T04:57:13;22.92;;;5.75;;
22539;SDS011;11436;50.860;4.334;2022-07-19T04:59:40;25.30;;;5.18;;
22539;SDS011;11436;50.860;4.334;2022-07-19T05:02:06;17.92;;;4.65;;
22539;SDS011;11436;50.860;4.334;2022-07-19T05:04:32;23.73;;;5.00;;
22539;SDS011;11436;50.860;4.334;2022-07-19T05:06:57;23.75;;;4.60;;
22539;SDS011;11436;50.860;4.334;2022-07-19T05:09:24;22.83;;;4.97;;
22539;SDS011;11436;50.860;4.334;2022-07-19T05:11:51;19.58;;;4.75;;
22539;SDS011;11436;50.860;4.334;2022-07-19T05:14:17;22.05;;;5.15;;
22539;SDS011;11436;50.860;4.334;2022-07-19T05:16:44;15.57;;;4.72;;
22539;SDS011;11436;50.860;4.334;2022-07-19T05:19:10;19.63;;;5.00;;
22539;SDS011;11436;50.860;4.334;2022-07-19T05:21:36;16.92;;;4.50;;
22539;SDS011;11436;50.860;4.334;2022-07-19T05:24:02;24.33;;;6.50;;
22539;SDS011;11436;50.860;4.334;2022-07-19T05:26:28;16.80;;;5.18;;
22539;SDS011;11436;50.860;4.334;2022-07-19T05:28:55;18.88;;;5.40;;
22539;SDS011;11436;50.860;4.334;2022-07-19T05:31:20;16.58;;;4.88;;
22539;SDS011;11436;50.860;4.334;2022-07-19T05:33:46;15.02;;;4.90;;
22539;SDS011;11436;50.860;4.334;2022-07-19T05:36:12;15.82;;;4.03;;
22539;SDS011;11436;50.860;4.334;2022-07-19T05:38:38;11.07;;;3.55;;
22539;SDS011;11436;50.860;4.334;2022-07-19T05:41:04;11.32;;;3.65;;
22539;SDS011;11436;50.860;4.334;2022-07-19T05:43:35;9.68;;;3.00;;
22539;SDS011;11436;50.860;4.334;2022-07-19T05:46:01;14.25;;;3.80;;
22539;SDS011;11436;50.860;4.334;2022-07-19T05:48:28;7.80;;;2.70;;
22539;SDS011;11436;50.860;4.334;2022-07-19T05:50:54;8.15;;;3.03;;
22539;SDS011;11436;50.860;4.334;2022-07-19T05:53:20;13.52;;;7.63;;
22539;SDS011;11436;50.860;4.334;2022-07-19T05:55:45;13.52;;;3.22;;
22539;SDS011;11436;50.860;4.334;2022-07-19T05:58:11;11.23;;;3.13;;
22539;SDS011;11436;50.860;4.334;2022-07-19T06:00:37;11.45;;;3.42;;
22539;SDS011;11436;50.860;4.334;2022-07-19T06:03:03;11.48;;;2.92;;
22539;SDS011;11436;50.860;4.334;2022-07-19T06:05:29;11.00;;;3.05;;
22539;SDS011;11436;50.860;4.334;2022-07-19T06:07:54;24.48;;;11.85;;
22539;SDS011;11436;50.860;4.334;2022-07-19T06:10:20;20.17;;;13.98;;
22539;SDS011;11436;50.860;4.334;2022-07-19T06:12:46;13.07;;;3.78;;
22539;SDS011;11436;50.860;4.334;2022-07-19T06:15:12;11.32;;;3.65;;
22539;SDS011;11436;50.860;4.334;2022-07-19T06:17:38;14.23;;;3.53;;
22539;SDS011;11436;50.860;4.334;2022-07-19T06:20:03;10.70;;;4.80;;
22539;SDS011;11436;50.860;4.334;2022-07-19T06:22:30;7.15;;;3.42;;
22539;SDS011;11436;50.860;4.334;2022-07-19T06:24:58;11.90;;;3.75;;
22539;SDS011;11436;50.860;4.334;2022-07-19T06:27:24;6.20;;;3.00;;
22539;SDS011;11436;50.860;4.334;2022-07-19T06:29:50;13.18;;;2.83;;
22539;SDS011;11436;50.860;4.334;2022-07-19T06:32:16;9.35;;;3.30;;
22539;SDS011;11436;50.860;4.334;2022-07-19T06:34:41;8.75;;;2.70;;
22539;SDS011;11436;50.860;4.334;2022-07-19T06:37:08;8.40;;;2.60;;
22539;SDS011;11436;50.860;4.334;2022-07-19T06:39:35;13.57;;;2.92;;
22539;SDS011;11436;50.860;4.334;2022-07-19T06:42:01;6.10;;;2.70;;
22539;SDS011;11436;50.860;4.334;2022-07-19T06:44:27;10.63;;;2.78;;
22539;SDS011;11436;50.860;4.334;2022-07-19T06:46:52;17.80;;;6.93;;
22539;SDS011;11436;50.860;4.334;2022-07-19T06:49:18;6.38;;;3.03;;
22539;SDS011;11436;50.860;4.334;2022-07-19T06:51:44;10.05;;;3.00;;
22539;SDS011;11436;50.860;4.334;2022-07-19T06:54:09;9.18;;;3.45;;
22539;SDS011;11436;50.860;4.334;2022-07-19T06:56:36;9.95;;;2.72;;
22539;SDS011;11436;50.860;4.334;2022-07-19T06:59:01;18.70;;;3.03;;
22539;SDS011;11436;50.860;4.334;2022-07-19T07:01:27;17.52;;;2.95;;
22539;SDS011;11436;50.860;4.334;2022-07-19T07:03:53;11.93;;;2.63;;
22539;SDS011;11436;50.860;4.334;2022-07-19T07:06:18;5.22;;;2.47;;
22539;SDS011;11436;50.860;4.334;2022-07-19T07:08:44;11.02;;;2.60;;
22539;SDS011;11436;50.860;4.334;2022-07-19T07:11:10;7.20;;;2.40;;
22539;SDS011;11436;50.860;4.334;2022-07-19T07:13:35;6.93;;;2.47;;
22539;SDS011;11436;50.860;4.334;2022-07-19T07:16:01;8.60;;;2.75;;
22539;SDS011;11436;50.860;4.334;2022-07-19T07:18:27;8.30;;;2.40;;
22539;SDS011;11436;50.860;4.334;2022-07-19T07:20:53;11.68;;;2.88;;
22539;SDS011;11436;50.860;4.334;2022-07-19T07:23:18;8.80;;;2.10;;
22539;SDS011;11436;50.860;4.334;2022-07-19T07:25:44;6.35;;;1.70;;
22539;SDS011;11436;50.860;4.334;2022-07-19T07:28:10;5.15;;;1.90;;
22539;SDS011;11436;50.860;4.334;2022-07-19T07:30:36;7.70;;;2.53;;
22539;SDS011;11436;50.860;4.334;2022-07-19T07:33:01;6.55;;;2.25;;
22539;SDS011;11436;50.860;4.334;2022-07-19T07:35:27;14.52;;;2.20;;
22539;SDS011;11436;50.860;4.334;2022-07-19T07:37:53;10.63;;;2.60;;
22539;SDS011;11436;50.860;4.334;2022-07-19T07:40:19;8.75;;;2.30;;
22539;SDS011;11436;50.860;4.334;2022-07-19T07:42:44;8.40;;;2.30;;
22539;SDS011;11436;50.860;4.334;2022-07-19T07:45:10;6.00;;;1.98;;
22539;SDS011;11436;50.860;4.334;2022-07-19T07:47:36;9.77;;;2.42;;
22539;SDS011;11436;50.860;4.334;2022-07-19T07:50:03;4.75;;;2.00;;
22539;SDS011;11436;50.860;4.334;2022-07-19T07:52:31;7.07;;;2.50;;
22539;SDS011;11436;50.860;4.334;2022-07-19T07:54:57;4.53;;;2.15;;
22539;SDS011;11436;50.860;4.334;2022-07-19T07:57:24;7.00;;;1.85;;
22539;SDS011;11436;50.860;4.334;2022-07-19T07:59:50;8.05;;;3.42;;
22539;SDS011;11436;50.860;4.334;2022-07-19T08:02:15;11.00;;;2.50;;
22539;SDS011;11436;50.860;4.334;2022-07-19T08:04:41;7.50;;;2.28;;
22539;SDS011;11436;50.860;4.334;2022-07-19T08:07:06;8.85;;;2.28;;
22539;SDS011;11436;50.860;4.334;2022-07-19T08:09:32;9.00;;;2.40;;
22539;SDS011;11436;50.860;4.334;2022-07-19T08:11:58;7.63;;;2.10;;
22539;SDS011;11436;50.860;4.334;2022-07-19T08:14:23;9.70;;;2.53;;
22539;SDS011;11436;50.860;4.334;2022-07-19T08:16:49;9.68;;;2.25;;
22539;SDS011;11436;50.860;4.334;2022-07-19T08:19:15;16.27;;;2.78;;
22539;SDS011;11436;50.860;4.334;2022-07-19T08:21:40;9.88;;;2.63;;
22539;SDS011;11436;50.860;4.334;2022-07-19T08:24:06;11.88;;;2.70;;
22539;SDS011;11436;50.860;4.334;2022-07-19T08:26:32;10.98;;;3.08;;
22539;SDS011;11436;50.860;4.334;2022-07-19T08:28:57;7.68;;;2.00;;
22539;SDS011;11436;50.860;4.334;2022-07-19T08:31:23;7.63;;;2.58;;
22539;SDS011;11436;50.860;4.334;2022-07-19T08:33:49;8.73;;;2.50;;
22539;SDS011;11436;50.860;4.334;2022-07-19T08:36:14;6.45;;;3.47;;
22539;SDS011;11436;50.860;4.334;2022-07-19T08:38:40;7.65;;;2.67;;
22539;SDS011;11436;50.860;4.334;2022-07-19T08:41:07;14.05;;;2.45;;
22539;SDS011;11436;50.860;4.334;2022-07-19T08:43:33;6.60;;;2.30;;
22539;SDS011;11436;50.860;4.334;2022-07-19T08:46:02;10.68;;;2.20;;
22539;SDS011;11436;50.860;4.334;2022-07-19T08:48:36;12.05;;;2.42;;
22539;SDS011;11436;50.860;4.334;2022-07-19T08:51:04;11.43;;;3.03;;
22539;SDS011;11436;50.860;4.334;2022-07-19T08:53:30;11.82;;;2.63;;
22539;SDS011;11436;50.860;4.334;2022-07-19T08:55:57;5.50;;;2.55;;
22539;SDS011;11436;50.860;4.334;2022-07-19T08:58:26;5.43;;;2.47;;
22539;SDS011;11436;50.860;4.334;2022-07-19T09:00:52;6.70;;;3.65;;
22539;SDS011;11436;50.860;4.334;2022-07-19T09:03:17;11.43;;;2.45;;
22539;SDS011;11436;50.860;4.334;2022-07-19T09:05:45;5.43;;;2.15;;
22539;SDS011;11436;50.860;4.334;2022-07-19T09:08:11;7.93;;;2.63;;
22539;SDS011;11436;50.860;4.334;2022-07-19T09:10:47;11.45;;;2.90;;
22539;SDS011;11436;50.860;4.334;2022-07-19T09:13:32;8.40;;;2.65;;
22539;SDS011;11436;50.860;4.334;2022-07-19T09:15:59;9.57;;;2.25;;
22539;SDS011;11436;50.860;4.334;2022-07-19T09:18:26;10.35;;;2.90;;
22539;SDS011;11436;50.860;4.334;2022-07-19T09:20:57;6.03;;;2.53;;
22539;SDS011;11436;50.860;4.334;2022-07-19T09:23:26;9.65;;;2.70;;
22539;SDS011;11436;50.860;4.334;2022-07-19T09:25:54;10.30;;;2.95;;
22539;SDS011;11436;50.860;4.334;2022-07-19T09:28:22;10.90;;;2.90;;
22539;SDS011;11436;50.860;4.334;2022-07-19T09:30:50;9.32;;;2.83;;
22539;SDS011;11436;50.860;4.334;2022-07-19T09:35:46;8.63;;;2.30;;
22539;SDS011;11436;50.860;4.334;2022-07-19T09:38:18;9.57;;;2.50;;
22539;SDS011;11436;50.860;4.334;2022-07-19T09:40:45;11.38;;;2.75;;
22539;SDS011;11436;50.860;4.334;2022-07-19T09:43:12;11.23;;;2.40;;
22539;SDS011;11436;50.860;4.334;2022-07-19T09:45:38;5.45;;;2.40;;
22539;SDS011;11436;50.860;4.334;2022-07-19T09:48:04;6.50;;;2.47;;
22539;SDS011;11436;50.860;4.334;2022-07-19T09:50:30;7.70;;;2.50;;
22539;SDS011;11436;50.860;4.334;2022-07-19T09:53:01;7.95;;;2.35;;
22539;SDS011;11436;50.860;4.334;2022-07-19T09:55:31;10.77;;;2.60;;
22539;SDS011;11436;50.860;4.334;2022-07-19T09:57:58;9.60;;;2.47;;
22539;SDS011;11436;50.860;4.334;2022-07-19T10:00:26;6.85;;;2.33;;
22539;SDS011;11436;50.860;4.334;2022-07-19T10:02:53;5.00;;;2.58;;
22539;SDS011;11436;50.860;4.334;2022-07-19T10:05:20;6.30;;;2.35;;
22539;SDS011;11436;50.860;4.334;2022-07-19T10:07:47;8.30;;;2.50;;
22539;SDS011;11436;50.860;4.334;2022-07-19T10:10:14;7.15;;;2.35;;
22539;SDS011;11436;50.860;4.334;2022-07-19T10:12:43;9.52;;;2.80;;
22539;SDS011;11436;50.860;4.334;2022-07-19T10:15:11;8.13;;;3.00;;
22539;SDS011;11436;50.860;4.334;2022-07-19T10:20:09;7.82;;;2.83;;
22539;SDS011;11436;50.860;4.334;2022-07-19T10:22:38;9.02;;;3.15;;
22539;SDS011;11436;50.860;4.334;2022-07-19T10:25:12;6.93;;;2.60;;
22539;SDS011;11436;50.860;4.334;2022-07-19T10:27:40;8.18;;;2.60;;
22539;SDS011;11436;50.860;4.334;2022-07-19T10:32:45;17.70;;;2.97;;
22539;SDS011;11436;50.860;4.334;2022-07-19T10:37:43;12.45;;;2.63;;
22539;SDS011;11436;50.860;4.334;2022-07-19T10:40:11;7.13;;;2.30;;
22539;SDS011;11436;50.860;4.334;2022-07-19T10:42:59;5.10;;;2.42;;
22539;SDS011;11436;50.860;4.334;2022-07-19T10:45:33;11.15;;;2.95;;
22539;SDS011;11436;50.860;4.334;2022-07-19T10:48:01;12.07;;;2.97;;
22539;SDS011;11436;50.860;4.334;2022-07-19T10:50:43;11.27;;;2.80;;
22539;SDS011;11436;50.860;4.334;2022-07-19T10:53:10;7.90;;;2.30;;
22539;SDS011;11436;50.860;4.334;2022-07-19T10:56:16;12.82;;;2.90;;
22539;SDS011;11436;50.860;4.334;2022-07-19T10:58:59;14.18;;;2.80;;
22539;SDS011;11436;50.860;4.334;2022-07-19T11:01:28;18.60;;;3.03;;
22539;SDS011;11436;50.860;4.334;2022-07-19T11:06:52;11.73;;;2.78;;
22539;SDS011;11436;50.860;4.334;2022-07-19T11:09:47;9.13;;;2.75;;
22539;SDS011;11436;50.860;4.334;2022-07-19T11:14:57;6.63;;;2.80;;
22539;SDS011;11436;50.860;4.334;2022-07-19T11:17:24;10.85;;;3.83;;
22539;SDS011;11436;50.860;4.334;2022-07-19T11:20:00;11.68;;;3.10;;
22539;SDS011;11436;50.860;4.334;2022-07-19T11:22:35;9.05;;;2.60;;
22539;SDS011;11436;50.860;4.334;2022-07-19T11:25:22;8.13;;;2.28;;
22539;SDS011;11436;50.860;4.334;2022-07-19T11:27:53;7.63;;;2.25;;
22539;SDS011;11436;50.860;4.334;2022-07-19T11:30:21;17.45;;;2.70;;
22539;SDS011;11436;50.860;4.334;2022-07-19T11:32:55;11.63;;;2.63;;
22539;SDS011;11436;50.860;4.334;2022-07-19T11:35:24;12.45;;;3.13;;
22539;SDS011;11436;50.860;4.334;2022-07-19T11:37:51;10.35;;;3.90;;
22539;SDS011;11436;50.860;4.334;2022-07-19T11:40:19;12.68;;;3.70;;
22539;SDS011;11436;50.860;4.334;2022-07-19T11:42:46;9.90;;;2.22;;
22539;SDS011;11436;50.860;4.334;2022-07-19T11:45:20;8.38;;;2.30;;
22539;SDS011;11436;50.860;4.334;2022-07-19T11:47:49;10.45;;;2.80;;
22539;SDS011;11436;50.860;4.334;2022-07-19T11:50:21;10.27;;;2.33;;
22539;SDS011;11436;50.860;4.334;2022-07-19T11:52:50;8.10;;;2.53;;
22539;SDS011;11436;50.860;4.334;2022-07-19T11:57:51;8.25;;;2.60;;
22539;SDS011;11436;50.860;4.334;2022-07-19T12:00:18;10.05;;;2.67;;
22539;SDS011;11436;50.860;4.334;2022-07-19T12:02:54;11.63;;;2.70;;
22539;SDS011;11436;50.860;4.334;2022-07-19T12:05:26;10.18;;;3.45;;
22539;SDS011;11436;50.860;4.334;2022-07-19T12:07:53;7.80;;;2.63;;
22539;SDS011;11436;50.860;4.334;2022-07-19T12:10:43;10.85;;;2.80;;
22539;SDS011;11436;50.860;4.334;2022-07-19T12:13:10;6.57;;;2.53;;
22539;SDS011;11436;50.860;4.334;2022-07-19T12:18:10;8.07;;;2.95;;
22539;SDS011;11436;50.860;4.334;2022-07-19T12:20:38;12.48;;;2.50;;
22539;SDS011;11436;50.860;4.334;2022-07-19T12:23:14;4.82;;;2.03;;
22539;SDS011;11436;50.860;4.334;2022-07-19T12:25:47;6.60;;;2.50;;
22539;SDS011;11436;50.860;4.334;2022-07-19T12:28:14;6.68;;;2.60;;
22539;SDS011;11436;50.860;4.334;2022-07-19T12:30:40;9.98;;;2.45;;
22539;SDS011;11436;50.860;4.334;2022-07-19T12:33:10;10.23;;;2.90;;
22539;SDS011;11436;50.860;4.334;2022-07-19T12:35:43;8.95;;;2.92;;
22539;SDS011;11436;50.860;4.334;2022-07-19T12:38:10;13.10;;;3.15;;
22539;SDS011;11436;50.860;4.334;2022-07-19T12:40:37;10.02;;;3.00;;
22539;SDS011;11436;50.860;4.334;2022-07-19T12:43:05;8.98;;;3.17;;
22539;SDS011;11436;50.860;4.334;2022-07-19T12:45:33;9.27;;;2.63;;
22539;SDS011;11436;50.860;4.334;2022-07-19T12:48:02;13.65;;;3.65;;
22539;SDS011;11436;50.860;4.334;2022-07-19T12:50:34;6.03;;;2.50;;
22539;SDS011;11436;50.860;4.334;2022-07-19T12:53:03;6.22;;;2.75;;
22539;SDS011;11436;50.860;4.334;2022-07-19T12:55:30;8.13;;;3.95;;
22539;SDS011;11436;50.860;4.334;2022-07-19T12:57:57;13.10;;;4.07;;
22539;SDS011;11436;50.860;4.334;2022-07-19T13:00:24;17.00;;;3.72;;
22539;SDS011;11436;50.860;4.334;2022-07-19T13:02:52;13.73;;;3.08;;
22539;SDS011;11436;50.860;4.334;2022-07-19T13:05:18;8.95;;;3.33;;
22539;SDS011;11436;50.860;4.334;2022-07-19T13:07:45;12.00;;;4.13;;
22539;SDS011;11436;50.860;4.334;2022-07-19T13:10:12;15.43;;;3.78;;
22539;SDS011;11436;50.860;4.334;2022-07-19T13:12:38;16.23;;;3.85;;
22539;SDS011;11436;50.860;4.334;2022-07-19T13:15:05;7.55;;;2.95;;
22539;SDS011;11436;50.860;4.334;2022-07-19T13:17:32;8.80;;;2.63;;
22539;SDS011;11436;50.860;4.334;2022-07-19T13:19:58;8.85;;;3.45;;
22539;SDS011;11436;50.860;4.334;2022-07-19T13:22:24;25.42;;;3.45;;
22539;SDS011;11436;50.860;4.334;2022-07-19T13:24:50;10.38;;;3.45;;
22539;SDS011;11436;50.860;4.334;2022-07-19T13:27:15;17.08;;;3.33;;
22539;SDS011;11436;50.860;4.334;2022-07-19T13:29:42;4.20;;;2.78;;
22539;SDS011;11436;50.860;4.334;2022-07-19T13:32:08;7.93;;;2.95;;
22539;SDS011;11436;50.860;4.334;2022-07-19T13:34:38;7.45;;;3.17;;
22539;SDS011;11436;50.860;4.334;2022-07-19T13:37:04;9.70;;;3.45;;
22539;SDS011;11436;50.860;4.334;2022-07-19T13:39:30;8.65;;;3.10;;
22539;SDS011;11436;50.860;4.334;2022-07-19T13:41:56;10.02;;;3.05;;
22539;SDS011;11436;50.860;4.334;2022-07-19T13:44:22;8.43;;;3.60;;
22539;SDS011;11436;50.860;4.334;2022-07-19T13:46:48;11.05;;;3.10;;
22539;SDS011;11436;50.860;4.334;2022-07-19T13:49:14;6.13;;;2.92;;
22539;SDS011;11436;50.860;4.334;2022-07-19T13:51:40;9.38;;;2.80;;
22539;SDS011;11436;50.860;4.334;2022-07-19T13:54:06;5.35;;;2.70;;
22539;SDS011;11436;50.860;4.334;2022-07-19T13:56:32;8.68;;;3.10;;
22539;SDS011;11436;50.860;4.334;2022-07-19T13:58:59;6.32;;;2.60;;
22539;SDS011;11436;50.860;4.334;2022-07-19T14:01:25;9.57;;;2.88;;
22539;SDS011;11436;50.860;4.334;2022-07-19T14:03:52;10.02;;;2.65;;
22539;SDS011;11436;50.860;4.334;2022-07-19T14:06:18;9.18;;;3.33;;
22539;SDS011;11436;50.860;4.334;2022-07-19T14:08:44;11.73;;;2.90;;
22539;SDS011;11436;50.860;4.334;2022-07-19T14:11:10;9.95;;;2.70;;
22539;SDS011;11436;50.860;4.334;2022-07-19T14:13:36;11.88;;;3.08;;
22539;SDS011;11436;50.860;4.334;2022-07-19T14:16:02;11.77;;;3.80;;
22539;SDS011;11436;50.860;4.334;2022-07-19T14:18:29;9.93;;;2.72;;
22539;SDS011;11436;50.860;4.334;2022-07-19T14:20:55;10.88;;;3.13;;
22539;SDS011;11436;50.860;4.334;2022-07-19T14:23:21;8.35;;;2.38;;
22539;SDS011;11436;50.860;4.334;2022-07-19T14:25:47;9.65;;;2.60;;
22539;SDS011;11436;50.860;4.334;2022-07-19T14:28:13;6.90;;;2.50;;
22539;SDS011;11436;50.860;4.334;2022-07-19T14:30:39;8.55;;;2.58;;
22539;SDS011;11436;50.860;4.334;2022-07-19T14:33:06;18.45;;;3.25;;
22539;SDS011;11436;50.860;4.334;2022-07-19T14:35:32;10.57;;;3.00;;
22539;SDS011;11436;50.860;4.334;2022-07-19T14:37:58;5.03;;;2.50;;
22539;SDS011;11436;50.860;4.334;2022-07-19T14:40:24;5.13;;;2.83;;
22539;SDS011;11436;50.860;4.334;2022-07-19T14:42:49;4.40;;;2.50;;
22539;SDS011;11436;50.860;4.334;2022-07-19T14:45:15;7.30;;;3.90;;
22539;SDS011;11436;50.860;4.334;2022-07-19T14:47:41;11.32;;;2.45;;
22539;SDS011;11436;50.860;4.334;2022-07-19T14:50:08;7.78;;;2.80;;
22539;SDS011;11436;50.860;4.334;2022-07-19T14:52:36;15.45;;;2.83;;
22539;SDS011;11436;50.860;4.334;2022-07-19T14:55:02;7.88;;;2.33;;
22539;SDS011;11436;50.860;4.334;2022-07-19T14:57:29;6.18;;;1.98;;
22539;SDS011;11436;50.860;4.334;2022-07-19T14:59:55;7.90;;;2.00;;
22539;SDS011;11436;50.860;4.334;2022-07-19T15:02:21;17.23;;;2.55;;